sensor_id;sensor_type;location;lat;lon;timestamp;P1;durP1;ratioP1;P2;durP2;ratioP2
22525;SDS011;11429;50.842;4.386;2024-02-26T00:01:41;2.75;;;1.73;;
22525;SDS011;11429;50.842;4.386;2024-02-26T00:04:08;1.70;;;1.60;;
22525;SDS011;11429;50.842;4.386;2024-02-26T00:06:34;2.83;;;1.75;;
22525;SDS011;11429;50.842;4.386;2024-02-26T00:09:00;3.90;;;1.77;;
22525;SDS011;11429;50.842;4.386;2024-02-26T00:11:27;2.85;;;2.22;;
22525;SDS011;11429;50.842;4.386;2024-02-26T00:13:53;2.60;;;1.88;;
22525;SDS011;11429;50.842;4.386;2024-02-26T00:16:19;3.13;;;2.00;;
22525;SDS011;11429;50.842;4.386;2024-02-26T00:18:45;3.40;;;1.88;;
22525;SDS011;11429;50.842;4.386;2024-02-26T00:21:11;3.55;;;1.83;;
22525;SDS011;11429;50.842;4.386;2024-02-26T00:23:37;3.40;;;1.63;;
22525;SDS011;11429;50.842;4.386;2024-02-26T00:26:02;3.65;;;1.70;;
22525;SDS011;11429;50.842;4.386;2024-02-26T00:28:28;5.10;;;1.77;;
22525;SDS011;11429;50.842;4.386;2024-02-26T00:30:57;2.13;;;1.63;;
22525;SDS011;11429;50.842;4.386;2024-02-26T00:33:23;4.25;;;1.90;;
22525;SDS011;11429;50.842;4.386;2024-02-26T00:35:48;1.98;;;1.45;;
22525;SDS011;11429;50.842;4.386;2024-02-26T00:38:14;5.13;;;1.70;;
22525;SDS011;11429;50.842;4.386;2024-02-26T00:40:40;3.58;;;1.77;;
22525;SDS011;11429;50.842;4.386;2024-02-26T00:43:06;3.85;;;1.67;;
22525;SDS011;11429;50.842;4.386;2024-02-26T00:45:32;4.57;;;2.00;;
22525;SDS011;11429;50.842;4.386;2024-02-26T00:47:58;2.97;;;1.92;;
22525;SDS011;11429;50.842;4.386;2024-02-26T00:50:26;3.35;;;1.80;;
22525;SDS011;11429;50.842;4.386;2024-02-26T00:52:52;5.20;;;1.55;;
22525;SDS011;11429;50.842;4.386;2024-02-26T00:55:18;3.78;;;1.70;;
22525;SDS011;11429;50.842;4.386;2024-02-26T00:57:43;4.55;;;1.58;;
22525;SDS011;11429;50.842;4.386;2024-02-26T01:00:09;3.00;;;2.20;;
22525;SDS011;11429;50.842;4.386;2024-02-26T01:02:36;4.45;;;1.60;;
22525;SDS011;11429;50.842;4.386;2024-02-26T01:05:03;2.60;;;1.70;;
22525;SDS011;11429;50.842;4.386;2024-02-26T01:07:31;2.97;;;1.63;;
22525;SDS011;11429;50.842;4.386;2024-02-26T01:10:01;3.58;;;1.67;;
22525;SDS011;11429;50.842;4.386;2024-02-26T01:12:27;2.38;;;1.70;;
22525;SDS011;11429;50.842;4.386;2024-02-26T01:14:53;2.83;;;1.60;;
22525;SDS011;11429;50.842;4.386;2024-02-26T01:17:19;4.28;;;1.77;;
22525;SDS011;11429;50.842;4.386;2024-02-26T01:19:44;3.58;;;1.70;;
22525;SDS011;11429;50.842;4.386;2024-02-26T01:22:10;2.97;;;1.85;;
22525;SDS011;11429;50.842;4.386;2024-02-26T01:24:36;2.80;;;2.00;;
22525;SDS011;11429;50.842;4.386;2024-02-26T01:27:02;2.53;;;1.55;;
22525;SDS011;11429;50.842;4.386;2024-02-26T01:29:27;1.95;;;1.63;;
22525;SDS011;11429;50.842;4.386;2024-02-26T01:31:53;2.72;;;1.75;;
22525;SDS011;11429;50.842;4.386;2024-02-26T01:34:20;4.72;;;2.47;;
22525;SDS011;11429;50.842;4.386;2024-02-26T01:36:45;1.70;;;1.42;;
22525;SDS011;11429;50.842;4.386;2024-02-26T01:39:11;3.50;;;1.83;;
22525;SDS011;11429;50.842;4.386;2024-02-26T01:41:40;3.90;;;1.92;;
22525;SDS011;11429;50.842;4.386;2024-02-26T01:44:06;3.10;;;1.50;;
22525;SDS011;11429;50.842;4.386;2024-02-26T01:46:33;2.08;;;1.52;;
22525;SDS011;11429;50.842;4.386;2024-02-26T01:49:01;1.63;;;1.30;;
22525;SDS011;11429;50.842;4.386;2024-02-26T01:51:28;4.25;;;1.40;;
22525;SDS011;11429;50.842;4.386;2024-02-26T01:53:55;3.35;;;1.70;;
22525;SDS011;11429;50.842;4.386;2024-02-26T01:56:22;2.53;;;1.70;;
22525;SDS011;11429;50.842;4.386;2024-02-26T01:58:53;4.30;;;1.90;;
22525;SDS011;11429;50.842;4.386;2024-02-26T02:01:19;4.53;;;1.70;;
22525;SDS011;11429;50.842;4.386;2024-02-26T02:03:50;1.35;;;1.20;;
22525;SDS011;11429;50.842;4.386;2024-02-26T02:06:16;2.13;;;1.40;;
22525;SDS011;11429;50.842;4.386;2024-02-26T02:08:42;3.38;;;1.48;;
22525;SDS011;11429;50.842;4.386;2024-02-26T02:11:08;4.43;;;1.40;;
22525;SDS011;11429;50.842;4.386;2024-02-26T02:13:36;2.15;;;1.40;;
22525;SDS011;11429;50.842;4.386;2024-02-26T02:16:03;2.08;;;1.35;;
22525;SDS011;11429;50.842;4.386;2024-02-26T02:18:29;3.70;;;1.98;;
22525;SDS011;11429;50.842;4.386;2024-02-26T02:20:55;2.70;;;1.33;;
22525;SDS011;11429;50.842;4.386;2024-02-26T02:23:21;2.03;;;1.40;;
22525;SDS011;11429;50.842;4.386;2024-02-26T02:25:47;2.13;;;1.48;;
22525;SDS011;11429;50.842;4.386;2024-02-26T02:28:13;2.03;;;1.50;;
22525;SDS011;11429;50.842;4.386;2024-02-26T02:30:39;2.83;;;1.30;;
22525;SDS011;11429;50.842;4.386;2024-02-26T02:33:06;5.07;;;1.45;;
22525;SDS011;11429;50.842;4.386;2024-02-26T02:35:32;2.13;;;1.38;;
22525;SDS011;11429;50.842;4.386;2024-02-26T02:37:57;2.17;;;1.70;;
22525;SDS011;11429;50.842;4.386;2024-02-26T02:40:23;1.73;;;1.38;;
22525;SDS011;11429;50.842;4.386;2024-02-26T02:42:49;2.13;;;1.50;;
22525;SDS011;11429;50.842;4.386;2024-02-26T02:45:15;2.20;;;1.23;;
22525;SDS011;11429;50.842;4.386;2024-02-26T02:47:41;4.22;;;1.40;;
22525;SDS011;11429;50.842;4.386;2024-02-26T02:50:06;1.73;;;1.25;;
22525;SDS011;11429;50.842;4.386;2024-02-26T02:52:32;3.75;;;1.48;;
22525;SDS011;11429;50.842;4.386;2024-02-26T02:54:58;2.50;;;1.50;;
22525;SDS011;11429;50.842;4.386;2024-02-26T02:57:24;3.67;;;1.50;;
22525;SDS011;11429;50.842;4.386;2024-02-26T02:59:50;1.70;;;1.50;;
22525;SDS011;11429;50.842;4.386;2024-02-26T03:02:15;2.97;;;1.55;;
22525;SDS011;11429;50.842;4.386;2024-02-26T03:04:41;2.15;;;1.38;;
22525;SDS011;11429;50.842;4.386;2024-02-26T03:07:07;2.53;;;1.50;;
22525;SDS011;11429;50.842;4.386;2024-02-26T03:09:32;3.35;;;1.55;;
22525;SDS011;11429;50.842;4.386;2024-02-26T03:11:58;3.10;;;1.50;;
22525;SDS011;11429;50.842;4.386;2024-02-26T03:14:24;2.03;;;1.33;;
22525;SDS011;11429;50.842;4.386;2024-02-26T03:16:53;2.70;;;1.73;;
22525;SDS011;11429;50.842;4.386;2024-02-26T03:19:21;2.35;;;1.50;;
22525;SDS011;11429;50.842;4.386;2024-02-26T03:21:47;1.92;;;1.52;;
22525;SDS011;11429;50.842;4.386;2024-02-26T03:24:13;1.92;;;1.52;;
22525;SDS011;11429;50.842;4.386;2024-02-26T03:26:39;2.72;;;1.83;;
22525;SDS011;11429;50.842;4.386;2024-02-26T03:29:05;3.03;;;1.75;;
22525;SDS011;11429;50.842;4.386;2024-02-26T03:31:31;2.17;;;1.70;;
22525;SDS011;11429;50.842;4.386;2024-02-26T03:33:57;2.83;;;1.77;;
22525;SDS011;11429;50.842;4.386;2024-02-26T03:36:22;2.92;;;1.77;;
22525;SDS011;11429;50.842;4.386;2024-02-26T03:38:48;1.90;;;1.70;;
22525;SDS011;11429;50.842;4.386;2024-02-26T03:41:14;2.58;;;1.63;;
22525;SDS011;11429;50.842;4.386;2024-02-26T03:43:40;4.13;;;2.10;;
22525;SDS011;11429;50.842;4.386;2024-02-26T03:46:09;2.33;;;1.52;;
22525;SDS011;11429;50.842;4.386;2024-02-26T03:48:39;3.35;;;1.90;;
22525;SDS011;11429;50.842;4.386;2024-02-26T03:51:08;3.67;;;1.88;;
22525;SDS011;11429;50.842;4.386;2024-02-26T03:53:35;2.13;;;1.92;;
22525;SDS011;11429;50.842;4.386;2024-02-26T03:56:05;3.03;;;1.88;;
22525;SDS011;11429;50.842;4.386;2024-02-26T03:58:31;2.17;;;1.67;;
22525;SDS011;11429;50.842;4.386;2024-02-26T04:00:58;2.40;;;2.13;;
22525;SDS011;11429;50.842;4.386;2024-02-26T04:03:25;1.90;;;1.65;;
22525;SDS011;11429;50.842;4.386;2024-02-26T04:05:51;2.33;;;2.03;;
22525;SDS011;11429;50.842;4.386;2024-02-26T04:08:16;2.30;;;2.10;;
22525;SDS011;11429;50.842;4.386;2024-02-26T04:10:42;2.92;;;2.55;;
22525;SDS011;11429;50.842;4.386;2024-02-26T04:13:08;2.78;;;2.13;;
22525;SDS011;11429;50.842;4.386;2024-02-26T04:15:34;2.97;;;2.33;;
22525;SDS011;11429;50.842;4.386;2024-02-26T04:17:59;3.42;;;2.80;;
22525;SDS011;11429;50.842;4.386;2024-02-26T04:20:25;5.30;;;3.05;;
22525;SDS011;11429;50.842;4.386;2024-02-26T04:22:51;3.25;;;2.80;;
22525;SDS011;11429;50.842;4.386;2024-02-26T04:25:18;4.10;;;2.88;;
22525;SDS011;11429;50.842;4.386;2024-02-26T04:27:44;6.32;;;3.20;;
22525;SDS011;11429;50.842;4.386;2024-02-26T04:30:09;6.18;;;3.55;;
22525;SDS011;11429;50.842;4.386;2024-02-26T04:32:36;6.07;;;3.70;;
22525;SDS011;11429;50.842;4.386;2024-02-26T04:35:02;4.18;;;3.78;;
22525;SDS011;11429;50.842;4.386;2024-02-26T04:37:28;5.45;;;3.88;;
22525;SDS011;11429;50.842;4.386;2024-02-26T04:39:59;5.85;;;4.40;;
22525;SDS011;11429;50.842;4.386;2024-02-26T04:42:26;5.35;;;4.65;;
22525;SDS011;11429;50.842;4.386;2024-02-26T04:44:52;6.85;;;4.55;;
22525;SDS011;11429;50.842;4.386;2024-02-26T04:47:19;6.38;;;4.63;;
22525;SDS011;11429;50.842;4.386;2024-02-26T04:49:44;5.00;;;4.50;;
22525;SDS011;11429;50.842;4.386;2024-02-26T04:52:11;6.28;;;5.00;;
22525;SDS011;11429;50.842;4.386;2024-02-26T04:54:36;6.95;;;4.90;;
22525;SDS011;11429;50.842;4.386;2024-02-26T04:57:02;5.60;;;4.72;;
22525;SDS011;11429;50.842;4.386;2024-02-26T04:59:28;5.60;;;5.10;;
22525;SDS011;11429;50.842;4.386;2024-02-26T05:01:54;6.40;;;5.20;;
22525;SDS011;11429;50.842;4.386;2024-02-26T05:04:20;7.55;;;5.47;;
22525;SDS011;11429;50.842;4.386;2024-02-26T05:06:45;6.72;;;5.28;;
22525;SDS011;11429;50.842;4.386;2024-02-26T05:09:11;7.40;;;5.30;;
22525;SDS011;11429;50.842;4.386;2024-02-26T05:11:37;5.90;;;5.30;;
22525;SDS011;11429;50.842;4.386;2024-02-26T05:14:03;7.47;;;5.85;;
22525;SDS011;11429;50.842;4.386;2024-02-26T05:16:28;7.03;;;6.32;;
22525;SDS011;11429;50.842;4.386;2024-02-26T05:18:56;7.93;;;6.75;;
22525;SDS011;11429;50.842;4.386;2024-02-26T05:21:22;8.65;;;6.32;;
22525;SDS011;11429;50.842;4.386;2024-02-26T05:23:48;7.13;;;6.43;;
22525;SDS011;11429;50.842;4.386;2024-02-26T05:26:20;11.48;;;7.95;;
22525;SDS011;11429;50.842;4.386;2024-02-26T05:28:46;8.60;;;7.50;;
22525;SDS011;11429;50.842;4.386;2024-02-26T05:31:13;9.70;;;8.27;;
22525;SDS011;11429;50.842;4.386;2024-02-26T05:33:39;10.43;;;8.23;;
22525;SDS011;11429;50.842;4.386;2024-02-26T05:36:05;11.82;;;9.18;;
22525;SDS011;11429;50.842;4.386;2024-02-26T05:38:31;10.63;;;9.43;;
22525;SDS011;11429;50.842;4.386;2024-02-26T05:40:57;12.63;;;11.35;;
22525;SDS011;11429;50.842;4.386;2024-02-26T05:43:26;12.40;;;11.07;;
22525;SDS011;11429;50.842;4.386;2024-02-26T05:45:52;15.93;;;12.05;;
22525;SDS011;11429;50.842;4.386;2024-02-26T05:48:18;14.52;;;12.00;;
22525;SDS011;11429;50.842;4.386;2024-02-26T05:50:44;13.82;;;12.38;;
22525;SDS011;11429;50.842;4.386;2024-02-26T05:53:11;15.80;;;13.65;;
22525;SDS011;11429;50.842;4.386;2024-02-26T05:55:37;14.27;;;12.63;;
22525;SDS011;11429;50.842;4.386;2024-02-26T05:58:03;15.63;;;12.90;;
22525;SDS011;11429;50.842;4.386;2024-02-26T06:00:30;17.58;;;13.25;;
22525;SDS011;11429;50.842;4.386;2024-02-26T06:02:56;15.43;;;12.45;;
22525;SDS011;11429;50.842;4.386;2024-02-26T06:05:23;14.52;;;12.45;;
22525;SDS011;11429;50.842;4.386;2024-02-26T06:07:48;15.60;;;13.30;;
22525;SDS011;11429;50.842;4.386;2024-02-26T06:10:14;15.88;;;12.90;;
22525;SDS011;11429;50.842;4.386;2024-02-26T06:12:40;13.63;;;12.27;;
22525;SDS011;11429;50.842;4.386;2024-02-26T06:15:06;14.25;;;11.73;;
22525;SDS011;11429;50.842;4.386;2024-02-26T06:17:32;16.65;;;13.15;;
22525;SDS011;11429;50.842;4.386;2024-02-26T06:19:58;16.75;;;12.70;;
22525;SDS011;11429;50.842;4.386;2024-02-26T06:22:24;13.65;;;12.18;;
22525;SDS011;11429;50.842;4.386;2024-02-26T06:24:50;14.20;;;12.70;;
22525;SDS011;11429;50.842;4.386;2024-02-26T06:27:16;14.90;;;12.70;;
22525;SDS011;11429;50.842;4.386;2024-02-26T06:29:42;14.65;;;12.13;;
22525;SDS011;11429;50.842;4.386;2024-02-26T06:32:07;14.13;;;12.30;;
22525;SDS011;11429;50.842;4.386;2024-02-26T06:34:33;13.68;;;12.27;;
22525;SDS011;11429;50.842;4.386;2024-02-26T06:36:59;13.70;;;12.30;;
22525;SDS011;11429;50.842;4.386;2024-02-26T06:39:25;13.65;;;12.23;;
22525;SDS011;11429;50.842;4.386;2024-02-26T06:41:51;15.13;;;12.60;;
22525;SDS011;11429;50.842;4.386;2024-02-26T06:44:23;14.40;;;11.90;;
22525;SDS011;11429;50.842;4.386;2024-02-26T06:46:49;13.70;;;12.30;;
22525;SDS011;11429;50.842;4.386;2024-02-26T06:49:15;12.25;;;10.82;;
22525;SDS011;11429;50.842;4.386;2024-02-26T06:51:41;15.43;;;11.82;;
22525;SDS011;11429;50.842;4.386;2024-02-26T06:54:06;14.63;;;13.00;;
22525;SDS011;11429;50.842;4.386;2024-02-26T06:56:32;13.07;;;11.77;;
22525;SDS011;11429;50.842;4.386;2024-02-26T06:58:58;13.20;;;11.88;;
22525;SDS011;11429;50.842;4.386;2024-02-26T07:01:24;13.38;;;11.90;;
22525;SDS011;11429;50.842;4.386;2024-02-26T07:03:50;13.93;;;12.43;;
22525;SDS011;11429;50.842;4.386;2024-02-26T07:06:15;14.88;;;12.13;;
22525;SDS011;11429;50.842;4.386;2024-02-26T07:08:41;13.65;;;11.75;;
22525;SDS011;11429;50.842;4.386;2024-02-26T07:11:07;13.07;;;11.77;;
22525;SDS011;11429;50.842;4.386;2024-02-26T07:13:34;13.98;;;12.38;;
22525;SDS011;11429;50.842;4.386;2024-02-26T07:15:59;14.13;;;12.63;;
22525;SDS011;11429;50.842;4.386;2024-02-26T07:18:25;13.25;;;11.85;;
22525;SDS011;11429;50.842;4.386;2024-02-26T07:20:51;13.85;;;12.52;;
22525;SDS011;11429;50.842;4.386;2024-02-26T07:23:17;13.90;;;12.63;;
22525;SDS011;11429;50.842;4.386;2024-02-26T07:25:42;13.15;;;11.90;;
22525;SDS011;11429;50.842;4.386;2024-02-26T07:28:09;13.85;;;12.43;;
22525;SDS011;11429;50.842;4.386;2024-02-26T07:30:36;17.40;;;13.60;;
22525;SDS011;11429;50.842;4.386;2024-02-26T07:33:01;15.18;;;13.57;;
22525;SDS011;11429;50.842;4.386;2024-02-26T07:35:27;14.00;;;12.70;;
22525;SDS011;11429;50.842;4.386;2024-02-26T07:37:53;13.45;;;12.23;;
22525;SDS011;11429;50.842;4.386;2024-02-26T07:40:18;13.95;;;12.57;;
22525;SDS011;11429;50.842;4.386;2024-02-26T07:42:44;13.75;;;12.35;;
22525;SDS011;11429;50.842;4.386;2024-02-26T07:45:10;13.18;;;11.88;;
22525;SDS011;11429;50.842;4.386;2024-02-26T07:47:36;13.85;;;12.55;;
22525;SDS011;11429;50.842;4.386;2024-02-26T07:50:05;14.25;;;12.80;;
22525;SDS011;11429;50.842;4.386;2024-02-26T07:52:32;14.80;;;13.27;;
22525;SDS011;11429;50.842;4.386;2024-02-26T07:54:58;14.88;;;12.98;;
22525;SDS011;11429;50.842;4.386;2024-02-26T07:57:24;12.93;;;11.73;;
22525;SDS011;11429;50.842;4.386;2024-02-26T07:59:50;14.15;;;12.70;;
22525;SDS011;11429;50.842;4.386;2024-02-26T08:02:16;15.02;;;13.43;;
22525;SDS011;11429;50.842;4.386;2024-02-26T08:04:43;15.18;;;13.63;;
22525;SDS011;11429;50.842;4.386;2024-02-26T08:07:08;13.55;;;11.18;;
22525;SDS011;11429;50.842;4.386;2024-02-26T08:09:34;13.75;;;12.30;;
22525;SDS011;11429;50.842;4.386;2024-02-26T08:12:00;13.38;;;12.07;;
22525;SDS011;11429;50.842;4.386;2024-02-26T08:14:26;12.52;;;11.32;;
22525;SDS011;11429;50.842;4.386;2024-02-26T08:16:52;11.82;;;10.73;;
22525;SDS011;11429;50.842;4.386;2024-02-26T08:19:17;11.20;;;10.13;;
22525;SDS011;11429;50.842;4.386;2024-02-26T08:21:43;12.88;;;11.65;;
22525;SDS011;11429;50.842;4.386;2024-02-26T08:24:09;12.10;;;10.93;;
22525;SDS011;11429;50.842;4.386;2024-02-26T08:26:35;12.38;;;11.05;;
22525;SDS011;11429;50.842;4.386;2024-02-26T08:29:01;12.02;;;10.88;;
22525;SDS011;11429;50.842;4.386;2024-02-26T08:31:27;12.63;;;11.32;;
22525;SDS011;11429;50.842;4.386;2024-02-26T08:33:53;11.70;;;10.57;;
22525;SDS011;11429;50.842;4.386;2024-02-26T08:36:19;11.98;;;10.77;;
22525;SDS011;11429;50.842;4.386;2024-02-26T08:38:45;11.57;;;10.48;;
22525;SDS011;11429;50.842;4.386;2024-02-26T08:41:11;12.18;;;10.80;;
22525;SDS011;11429;50.842;4.386;2024-02-26T08:43:36;11.05;;;10.05;;
22525;SDS011;11429;50.842;4.386;2024-02-26T08:46:02;11.73;;;10.68;;
22525;SDS011;11429;50.842;4.386;2024-02-26T08:48:28;11.95;;;10.95;;
22525;SDS011;11429;50.842;4.386;2024-02-26T08:50:54;10.98;;;9.98;;
22525;SDS011;11429;50.842;4.386;2024-02-26T08:53:20;12.02;;;10.93;;
22525;SDS011;11429;50.842;4.386;2024-02-26T08:55:46;11.20;;;10.10;;
22525;SDS011;11429;50.842;4.386;2024-02-26T08:58:12;10.70;;;9.70;;
22525;SDS011;11429;50.842;4.386;2024-02-26T09:00:37;10.70;;;9.77;;
22525;SDS011;11429;50.842;4.386;2024-02-26T09:03:03;11.10;;;10.00;;
22525;SDS011;11429;50.842;4.386;2024-02-26T09:05:29;10.45;;;9.45;;
22525;SDS011;11429;50.842;4.386;2024-02-26T09:07:55;10.65;;;9.68;;
22525;SDS011;11429;50.842;4.386;2024-02-26T09:10:21;10.30;;;9.30;;
22525;SDS011;11429;50.842;4.386;2024-02-26T09:12:47;13.23;;;9.48;;
22525;SDS011;11429;50.842;4.386;2024-02-26T09:15:13;10.88;;;9.88;;
22525;SDS011;11429;50.842;4.386;2024-02-26T09:17:39;11.60;;;10.40;;
22525;SDS011;11429;50.842;4.386;2024-02-26T09:20:05;12.00;;;10.88;;
22525;SDS011;11429;50.842;4.386;2024-02-26T09:22:34;9.82;;;8.93;;
22525;SDS011;11429;50.842;4.386;2024-02-26T09:25:02;10.75;;;9.35;;
22525;SDS011;11429;50.842;4.386;2024-02-26T09:27:32;10.95;;;9.95;;
22525;SDS011;11429;50.842;4.386;2024-02-26T09:30:01;10.15;;;9.13;;
22525;SDS011;11429;50.842;4.386;2024-02-26T09:32:27;10.02;;;9.13;;
22525;SDS011;11429;50.842;4.386;2024-02-26T09:34:52;10.48;;;9.48;;
22525;SDS011;11429;50.842;4.386;2024-02-26T09:37:18;11.15;;;10.15;;
22525;SDS011;11429;50.842;4.386;2024-02-26T09:39:44;11.00;;;9.90;;
22525;SDS011;11429;50.842;4.386;2024-02-26T09:42:11;10.50;;;9.50;;
22525;SDS011;11429;50.842;4.386;2024-02-26T09:44:39;11.50;;;10.40;;
22525;SDS011;11429;50.842;4.386;2024-02-26T09:47:10;12.35;;;11.15;;
22525;SDS011;11429;50.842;4.386;2024-02-26T09:49:42;12.18;;;10.90;;
22525;SDS011;11429;50.842;4.386;2024-02-26T09:52:08;11.80;;;10.60;;
22525;SDS011;11429;50.842;4.386;2024-02-26T09:54:35;11.60;;;10.45;;
22525;SDS011;11429;50.842;4.386;2024-02-26T09:57:02;10.73;;;9.73;;
22525;SDS011;11429;50.842;4.386;2024-02-26T09:59:36;10.85;;;9.80;;
22525;SDS011;11429;50.842;4.386;2024-02-26T10:02:11;10.55;;;9.52;;
22525;SDS011;11429;50.842;4.386;2024-02-26T10:04:41;9.68;;;8.80;;
22525;SDS011;11429;50.842;4.386;2024-02-26T10:07:11;11.80;;;10.70;;
22525;SDS011;11429;50.842;4.386;2024-02-26T10:09:38;9.98;;;9.07;;
22525;SDS011;11429;50.842;4.386;2024-02-26T10:12:04;10.13;;;9.02;;
22525;SDS011;11429;50.842;4.386;2024-02-26T10:14:31;10.02;;;8.80;;
22525;SDS011;11429;50.842;4.386;2024-02-26T10:16:57;9.40;;;8.50;;
22525;SDS011;11429;50.842;4.386;2024-02-26T10:19:30;9.98;;;9.00;;
22525;SDS011;11429;50.842;4.386;2024-02-26T10:21:56;10.05;;;9.10;;
22525;SDS011;11429;50.842;4.386;2024-02-26T10:24:23;9.07;;;8.18;;
22525;SDS011;11429;50.842;4.386;2024-02-26T10:26:52;9.00;;;8.10;;
22525;SDS011;11429;50.842;4.386;2024-02-26T10:29:21;8.57;;;7.68;;
22525;SDS011;11429;50.842;4.386;2024-02-26T10:31:50;8.95;;;8.02;;
22525;SDS011;11429;50.842;4.386;2024-02-26T10:34:16;8.48;;;7.68;;
22525;SDS011;11429;50.842;4.386;2024-02-26T10:36:43;6.88;;;6.25;;
22525;SDS011;11429;50.842;4.386;2024-02-26T10:39:12;7.32;;;6.63;;
22525;SDS011;11429;50.842;4.386;2024-02-26T10:41:39;8.70;;;7.82;;
22525;SDS011;11429;50.842;4.386;2024-02-26T10:44:07;7.38;;;6.68;;
22525;SDS011;11429;50.842;4.386;2024-02-26T10:46:37;7.80;;;7.10;;
22525;SDS011;11429;50.842;4.386;2024-02-26T10:49:07;7.22;;;6.35;;
22525;SDS011;11429;50.842;4.386;2024-02-26T10:51:45;6.15;;;5.55;;
22525;SDS011;11429;50.842;4.386;2024-02-26T10:54:16;6.20;;;5.60;;
22525;SDS011;11429;50.842;4.386;2024-02-26T10:56:42;6.40;;;5.80;;
22525;SDS011;11429;50.842;4.386;2024-02-26T10:59:11;6.28;;;5.70;;
22525;SDS011;11429;50.842;4.386;2024-02-26T11:01:37;5.78;;;5.28;;
22525;SDS011;11429;50.842;4.386;2024-02-26T11:04:06;6.10;;;5.55;;
22525;SDS011;11429;50.842;4.386;2024-02-26T11:06:34;5.15;;;4.70;;
22525;SDS011;11429;50.842;4.386;2024-02-26T11:09:01;5.88;;;5.28;;
22525;SDS011;11429;50.842;4.386;2024-02-26T11:11:29;5.72;;;5.00;;
22525;SDS011;11429;50.842;4.386;2024-02-26T11:13:57;4.97;;;4.57;;
22525;SDS011;11429;50.842;4.386;2024-02-26T11:16:24;5.25;;;4.75;;
22525;SDS011;11429;50.842;4.386;2024-02-26T11:18:52;7.93;;;4.90;;
22525;SDS011;11429;50.842;4.386;2024-02-26T11:21:20;5.03;;;4.53;;
22525;SDS011;11429;50.842;4.386;2024-02-26T11:24:04;4.80;;;4.30;;
22525;SDS011;11429;50.842;4.386;2024-02-26T11:26:36;5.95;;;5.45;;
22525;SDS011;11429;50.842;4.386;2024-02-26T11:29:25;4.80;;;4.30;;
22525;SDS011;11429;50.842;4.386;2024-02-26T11:31:59;5.03;;;4.53;;
22525;SDS011;11429;50.842;4.386;2024-02-26T11:34:25;4.28;;;3.88;;
22525;SDS011;11429;50.842;4.386;2024-02-26T11:36:52;4.35;;;3.92;;
22525;SDS011;11429;50.842;4.386;2024-02-26T11:39:19;4.18;;;3.78;;
22525;SDS011;11429;50.842;4.386;2024-02-26T11:41:45;5.28;;;4.55;;
22525;SDS011;11429;50.842;4.386;2024-02-26T11:44:12;4.00;;;3.60;;
22525;SDS011;11429;50.842;4.386;2024-02-26T11:46:41;4.78;;;4.38;;
22525;SDS011;11429;50.842;4.386;2024-02-26T11:51:52;4.50;;;4.10;;
22525;SDS011;11429;50.842;4.386;2024-02-26T12:00:34;3.90;;;3.60;;
22525;SDS011;11429;50.842;4.386;2024-02-26T12:05:24;4.28;;;3.70;;
22525;SDS011;11429;50.842;4.386;2024-02-26T12:08:02;4.65;;;4.20;;
22525;SDS011;11429;50.842;4.386;2024-02-26T12:10:32;4.13;;;3.80;;
22525;SDS011;11429;50.842;4.386;2024-02-26T12:15:43;4.97;;;4.40;;
22525;SDS011;11429;50.842;4.386;2024-02-26T12:18:15;4.75;;;4.35;;
22525;SDS011;11429;50.842;4.386;2024-02-26T12:20:42;4.93;;;4.43;;
22525;SDS011;11429;50.842;4.386;2024-02-26T12:23:15;5.10;;;4.60;;
22525;SDS011;11429;50.842;4.386;2024-02-26T12:25:44;4.72;;;4.22;;
22525;SDS011;11429;50.842;4.386;2024-02-26T12:28:13;4.75;;;4.35;;
22525;SDS011;11429;50.842;4.386;2024-02-26T12:30:40;5.15;;;4.20;;
22525;SDS011;11429;50.842;4.386;2024-02-26T12:33:05;4.40;;;4.00;;
22525;SDS011;11429;50.842;4.386;2024-02-26T12:35:33;4.57;;;4.18;;
22525;SDS011;11429;50.842;4.386;2024-02-26T12:38:00;6.20;;;4.45;;
22525;SDS011;11429;50.842;4.386;2024-02-26T12:40:26;5.28;;;4.78;;
22525;SDS011;11429;50.842;4.386;2024-02-26T12:42:53;4.47;;;4.07;;
22525;SDS011;11429;50.842;4.386;2024-02-26T12:45:20;4.60;;;4.20;;
22525;SDS011;11429;50.842;4.386;2024-02-26T12:47:46;4.45;;;4.00;;
22525;SDS011;11429;50.842;4.386;2024-02-26T12:50:13;5.10;;;4.60;;
22525;SDS011;11429;50.842;4.386;2024-02-26T12:52:39;4.60;;;4.00;;
22525;SDS011;11429;50.842;4.386;2024-02-26T12:55:09;4.22;;;3.83;;
22525;SDS011;11429;50.842;4.386;2024-02-26T12:57:38;4.90;;;4.40;;
22525;SDS011;11429;50.842;4.386;2024-02-26T13:00:05;4.82;;;4.03;;
22525;SDS011;11429;50.842;4.386;2024-02-26T13:02:34;4.85;;;4.43;;
22525;SDS011;11429;50.842;4.386;2024-02-26T13:05:02;4.53;;;4.13;;
22525;SDS011;11429;50.842;4.386;2024-02-26T13:07:32;5.25;;;4.75;;
22525;SDS011;11429;50.842;4.386;2024-02-26T13:09:58;5.75;;;5.25;;
22525;SDS011;11429;50.842;4.386;2024-02-26T13:12:25;5.25;;;4.72;;
22525;SDS011;11429;50.842;4.386;2024-02-26T13:15:03;5.20;;;4.60;;
22525;SDS011;11429;50.842;4.386;2024-02-26T13:17:32;5.10;;;4.60;;
22525;SDS011;11429;50.842;4.386;2024-02-26T13:19:59;5.18;;;4.68;;
22525;SDS011;11429;50.842;4.386;2024-02-26T13:22:24;4.80;;;4.40;;
22525;SDS011;11429;50.842;4.386;2024-02-26T13:24:56;5.57;;;4.70;;
22525;SDS011;11429;50.842;4.386;2024-02-26T13:27:24;6.53;;;5.25;;
22525;SDS011;11429;50.842;4.386;2024-02-26T13:30:10;5.70;;;5.03;;
22525;SDS011;11429;50.842;4.386;2024-02-26T13:32:38;6.18;;;5.57;;
22525;SDS011;11429;50.842;4.386;2024-02-26T13:35:05;6.07;;;5.47;;
22525;SDS011;11429;50.842;4.386;2024-02-26T13:37:32;7.50;;;6.25;;
22525;SDS011;11429;50.842;4.386;2024-02-26T13:39:58;7.22;;;6.53;;
22525;SDS011;11429;50.842;4.386;2024-02-26T13:42:24;7.35;;;6.35;;
22525;SDS011;11429;50.842;4.386;2024-02-26T13:44:50;7.00;;;6.10;;
22525;SDS011;11429;50.842;4.386;2024-02-26T13:47:16;7.90;;;6.80;;
22525;SDS011;11429;50.842;4.386;2024-02-26T13:49:43;7.97;;;7.18;;
22525;SDS011;11429;50.842;4.386;2024-02-26T13:52:09;7.75;;;6.95;;
22525;SDS011;11429;50.842;4.386;2024-02-26T13:54:35;8.30;;;7.50;;
22525;SDS011;11429;50.842;4.386;2024-02-26T13:57:03;8.20;;;7.40;;
22525;SDS011;11429;50.842;4.386;2024-02-26T13:59:29;7.55;;;6.85;;
22525;SDS011;11429;50.842;4.386;2024-02-26T14:01:55;9.05;;;8.15;;
22525;SDS011;11429;50.842;4.386;2024-02-26T14:04:20;7.90;;;7.10;;
22525;SDS011;11429;50.842;4.386;2024-02-26T14:06:46;8.88;;;7.80;;
22525;SDS011;11429;50.842;4.386;2024-02-26T14:09:12;8.48;;;7.63;;
22525;SDS011;11429;50.842;4.386;2024-02-26T14:11:43;8.02;;;6.90;;
22525;SDS011;11429;50.842;4.386;2024-02-26T14:14:13;9.70;;;8.13;;
22525;SDS011;11429;50.842;4.386;2024-02-26T14:16:39;9.98;;;8.95;;
22525;SDS011;11429;50.842;4.386;2024-02-26T14:19:05;9.55;;;8.55;;
22525;SDS011;11429;50.842;4.386;2024-02-26T14:21:30;10.90;;;7.68;;
22525;SDS011;11429;50.842;4.386;2024-02-26T14:23:56;8.82;;;7.80;;
22525;SDS011;11429;50.842;4.386;2024-02-26T14:26:22;10.38;;;8.80;;
22525;SDS011;11429;50.842;4.386;2024-02-26T14:28:48;10.23;;;8.18;;
22525;SDS011;11429;50.842;4.386;2024-02-26T14:31:16;11.00;;;8.77;;
22525;SDS011;11429;50.842;4.386;2024-02-26T14:33:43;10.43;;;8.70;;
22525;SDS011;11429;50.842;4.386;2024-02-26T14:36:09;16.90;;;12.50;;
22525;SDS011;11429;50.842;4.386;2024-02-26T14:38:35;9.77;;;8.77;;
22525;SDS011;11429;50.842;4.386;2024-02-26T14:41:01;12.38;;;8.98;;
22525;SDS011;11429;50.842;4.386;2024-02-26T14:43:27;11.27;;;10.07;;
22525;SDS011;11429;50.842;4.386;2024-02-26T14:45:54;11.18;;;8.98;;
22525;SDS011;11429;50.842;4.386;2024-02-26T14:48:20;10.25;;;9.13;;
22525;SDS011;11429;50.842;4.386;2024-02-26T14:50:46;10.25;;;9.00;;
22525;SDS011;11429;50.842;4.386;2024-02-26T14:53:12;10.70;;;9.60;;